sensor_id;sensor_type;location;lat;lon;timestamp;pressure;altitude;pressure_sealevel;temperature;humidity
61939;BME280;47897;50.322;18.892;2022-08-14T00:01:44;98031.94;;;17.66;100.00
61939;BME280;47897;50.322;18.892;2022-08-14T00:04:11;98031.72;;;17.65;100.00
61939;BME280;47897;50.322;18.892;2022-08-14T00:06:38;98029.23;;;17.64;100.00
61939;BME280;47897;50.322;18.892;2022-08-14T00:09:05;98029.09;;;17.63;100.00
61939;BME280;47897;50.322;18.892;2022-08-14T00:11:32;98026.82;;;17.64;100.00
61939;BME280;47897;50.322;18.892;2022-08-14T00:14:00;98028.73;;;17.64;100.00
61939;BME280;47897;50.322;18.892;2022-08-14T00:16:28;98028.66;;;17.65;100.00
61939;BME280;47897;50.322;18.892;2022-08-14T00:18:55;98025.51;;;17.65;100.00
61939;BME280;47897;50.322;18.892;2022-08-14T00:21:22;98026.16;;;17.64;100.00
61939;BME280;47897;50.322;18.892;2022-08-14T00:23:48;98017.95;;;17.64;100.00
61939;BME280;47897;50.322;18.892;2022-08-14T00:26:17;98015.86;;;17.63;100.00
61939;BME280;47897;50.322;18.892;2022-08-14T00:28:44;98013.43;;;17.64;100.00
61939;BME280;47897;50.322;18.892;2022-08-14T00:31:11;98011.80;;;17.64;100.00
61939;BME280;47897;50.322;18.892;2022-08-14T00:33:39;98004.09;;;17.64;100.00
61939;BME280;47897;50.322;18.892;2022-08-14T00:36:06;98004.58;;;17.63;100.00
61939;BME280;47897;50.322;18.892;2022-08-14T00:38:36;98004.19;;;17.63;100.00
61939;BME280;47897;50.322;18.892;2022-08-14T00:41:05;98003.35;;;17.61;100.00
61939;BME280;47897;50.322;18.892;2022-08-14T00:43:33;98001.45;;;17.60;100.00
61939;BME280;47897;50.322;18.892;2022-08-14T00:46:06;97997.35;;;17.59;100.00
61939;BME280;47897;50.322;18.892;2022-08-14T00:48:33;97988.90;;;17.58;100.00
61939;BME280;47897;50.322;18.892;2022-08-14T00:51:00;97986.31;;;17.58;100.00
61939;BME280;47897;50.322;18.892;2022-08-14T00:53:27;97985.37;;;17.58;100.00
61939;BME280;47897;50.322;18.892;2022-08-14T00:55:54;97984.41;;;17.57;100.00
61939;BME280;47897;50.322;18.892;2022-08-14T00:58:23;97982.47;;;17.57;100.00
61939;BME280;47897;50.322;18.892;2022-08-14T01:01:02;97979.73;;;17.57;100.00
61939;BME280;47897;50.322;18.892;2022-08-14T01:03:30;97976.77;;;17.56;100.00
61939;BME280;47897;50.322;18.892;2022-08-14T01:06:09;97976.70;;;17.56;100.00
61939;BME280;47897;50.322;18.892;2022-08-14T01:08:36;97972.94;;;17.55;100.00
61939;BME280;47897;50.322;18.892;2022-08-14T01:11:05;97969.30;;;17.52;100.00
61939;BME280;47897;50.322;18.892;2022-08-14T01:13:38;97967.47;;;17.51;100.00
61939;BME280;47897;50.322;18.892;2022-08-14T01:16:10;97969.59;;;17.50;100.00
61939;BME280;47897;50.322;18.892;2022-08-14T01:18:38;97968.14;;;17.50;100.00
61939;BME280;47897;50.322;18.892;2022-08-14T01:21:33;97971.48;;;17.49;100.00
61939;BME280;47897;50.322;18.892;2022-08-14T01:24:02;97972.06;;;17.48;100.00
61939;BME280;47897;50.322;18.892;2022-08-14T01:26:29;97972.58;;;17.47;100.00
61939;BME280;47897;50.322;18.892;2022-08-14T01:28:57;97970.32;;;17.47;100.00
61939;BME280;47897;50.322;18.892;2022-08-14T01:31:28;97964.68;;;17.46;100.00
61939;BME280;47897;50.322;18.892;2022-08-14T01:33:59;97965.74;;;17.45;100.00
61939;BME280;47897;50.322;18.892;2022-08-14T01:36:28;97962.61;;;17.44;100.00
61939;BME280;47897;50.322;18.892;2022-08-14T01:39:08;97958.25;;;17.45;100.00
61939;BME280;47897;50.322;18.892;2022-08-14T01:41:36;97958.33;;;17.46;100.00
61939;BME280;47897;50.322;18.892;2022-08-14T01:44:09;97965.00;;;17.47;100.00
61939;BME280;47897;50.322;18.892;2022-08-14T01:46:39;97963.52;;;17.47;100.00
61939;BME280;47897;50.322;18.892;2022-08-14T01:49:10;97963.84;;;17.48;100.00
61939;BME280;47897;50.322;18.892;2022-08-14T01:51:38;97963.15;;;17.49;100.00
61939;BME280;47897;50.322;18.892;2022-08-14T01:54:13;97962.87;;;17.48;100.00
61939;BME280;47897;50.322;18.892;2022-08-14T01:56:41;97963.52;;;17.47;100.00
61939;BME280;47897;50.322;18.892;2022-08-14T02:01:51;97964.59;;;17.47;100.00
61939;BME280;47897;50.322;18.892;2022-08-14T02:04:20;97966.05;;;17.46;100.00
61939;BME280;47897;50.322;18.892;2022-08-14T02:06:48;97964.37;;;17.46;100.00
61939;BME280;47897;50.322;18.892;2022-08-14T02:09:17;97963.16;;;17.45;100.00
61939;BME280;47897;50.322;18.892;2022-08-14T02:11:45;97963.48;;;17.45;100.00
61939;BME280;47897;50.322;18.892;2022-08-14T02:14:13;97959.42;;;17.43;100.00
61939;BME280;47897;50.322;18.892;2022-08-14T02:16:45;97960.74;;;17.42;100.00
61939;BME280;47897;50.322;18.892;2022-08-14T02:19:15;97963.37;;;17.40;100.00
61939;BME280;47897;50.322;18.892;2022-08-14T02:21:45;97963.49;;;17.37;100.00
61939;BME280;47897;50.322;18.892;2022-08-14T02:24:13;97963.94;;;17.36;100.00
61939;BME280;47897;50.322;18.892;2022-08-14T02:26:43;97962.21;;;17.34;100.00
61939;BME280;47897;50.322;18.892;2022-08-14T02:29:17;97960.80;;;17.32;100.00
61939;BME280;47897;50.322;18.892;2022-08-14T02:31:48;97960.20;;;17.30;100.00
61939;BME280;47897;50.322;18.892;2022-08-14T02:34:20;97964.10;;;17.29;100.00
61939;BME280;47897;50.322;18.892;2022-08-14T02:36:51;97961.23;;;17.28;100.00
61939;BME280;47897;50.322;18.892;2022-08-14T02:39:19;97955.70;;;17.26;100.00
61939;BME280;47897;50.322;18.892;2022-08-14T02:41:46;97954.60;;;17.25;100.00
61939;BME280;47897;50.322;18.892;2022-08-14T02:44:17;97953.02;;;17.24;100.00
61939;BME280;47897;50.322;18.892;2022-08-14T02:46:51;97949.52;;;17.22;100.00
61939;BME280;47897;50.322;18.892;2022-08-14T02:49:18;97948.88;;;17.22;100.00
61939;BME280;47897;50.322;18.892;2022-08-14T02:51:54;97949.12;;;17.22;100.00
61939;BME280;47897;50.322;18.892;2022-08-14T02:54:22;97950.85;;;17.20;100.00
61939;BME280;47897;50.322;18.892;2022-08-14T02:56:49;97950.88;;;17.19;100.00
61939;BME280;47897;50.322;18.892;2022-08-14T02:59:17;97949.13;;;17.18;100.00
61939;BME280;47897;50.322;18.892;2022-08-14T03:01:44;97943.77;;;17.15;100.00
61939;BME280;47897;50.322;18.892;2022-08-14T03:04:13;97945.49;;;17.14;100.00
61939;BME280;47897;50.322;18.892;2022-08-14T03:06:40;97943.81;;;17.13;100.00
61939;BME280;47897;50.322;18.892;2022-08-14T03:09:10;97942.40;;;17.12;100.00
61939;BME280;47897;50.322;18.892;2022-08-14T03:11:37;97942.25;;;17.11;100.00
61939;BME280;47897;50.322;18.892;2022-08-14T03:14:05;97943.01;;;17.10;100.00
61939;BME280;47897;50.322;18.892;2022-08-14T03:16:32;97939.63;;;17.10;100.00
61939;BME280;47897;50.322;18.892;2022-08-14T03:19:02;97937.59;;;17.10;100.00
61939;BME280;47897;50.322;18.892;2022-08-14T03:21:30;97936.37;;;17.11;100.00
61939;BME280;47897;50.322;18.892;2022-08-14T03:23:59;97935.80;;;17.11;100.00
61939;BME280;47897;50.322;18.892;2022-08-14T03:26:42;97932.42;;;17.11;100.00
61939;BME280;47897;50.322;18.892;2022-08-14T03:29:13;97929.67;;;17.12;100.00
61939;BME280;47897;50.322;18.892;2022-08-14T03:31:40;97925.57;;;17.12;100.00
61939;BME280;47897;50.322;18.892;2022-08-14T03:34:08;97924.19;;;17.12;100.00
61939;BME280;47897;50.322;18.892;2022-08-14T03:36:38;97928.92;;;17.13;100.00
61939;BME280;47897;50.322;18.892;2022-08-14T03:39:11;97926.09;;;17.14;100.00
61939;BME280;47897;50.322;18.892;2022-08-14T03:41:38;97927.34;;;17.15;100.00
61939;BME280;47897;50.322;18.892;2022-08-14T03:44:06;97928.50;;;17.18;100.00
61939;BME280;47897;50.322;18.892;2022-08-14T03:46:37;97929.52;;;17.19;100.00
61939;BME280;47897;50.322;18.892;2022-08-14T03:49:05;97930.30;;;17.20;100.00
61939;BME280;47897;50.322;18.892;2022-08-14T03:51:32;97930.51;;;17.22;100.00
61939;BME280;47897;50.322;18.892;2022-08-14T03:54:01;97925.66;;;17.22;100.00
61939;BME280;47897;50.322;18.892;2022-08-14T03:56:29;97925.98;;;17.22;100.00
61939;BME280;47897;50.322;18.892;2022-08-14T03:58:59;97927.52;;;17.22;100.00
61939;BME280;47897;50.322;18.892;2022-08-14T04:01:27;97922.52;;;17.23;100.00
61939;BME280;47897;50.322;18.892;2022-08-14T04:03:55;97924.45;;;17.22;100.00
61939;BME280;47897;50.322;18.892;2022-08-14T04:06:33;97926.14;;;17.22;100.00
61939;BME280;47897;50.322;18.892;2022-08-14T04:09:00;97928.23;;;17.22;100.00
61939;BME280;47897;50.322;18.892;2022-08-14T04:11:27;97926.96;;;17.21;100.00
61939;BME280;47897;50.322;18.892;2022-08-14T04:13:55;97925.86;;;17.21;100.00
61939;BME280;47897;50.322;18.892;2022-08-14T04:16:22;97927.41;;;17.20;100.00
61939;BME280;47897;50.322;18.892;2022-08-14T04:18:55;97923.41;;;17.18;100.00
61939;BME280;47897;50.322;18.892;2022-08-14T04:21:24;97924.89;;;17.17;100.00
61939;BME280;47897;50.322;18.892;2022-08-14T04:23:58;97923.52;;;17.16;100.00
61939;BME280;47897;50.322;18.892;2022-08-14T04:26:27;97924.10;;;17.16;100.00
61939;BME280;47897;50.322;18.892;2022-08-14T04:28:55;97926.36;;;17.16;100.00
61939;BME280;47897;50.322;18.892;2022-08-14T04:31:24;97926.35;;;17.16;100.00
61939;BME280;47897;50.322;18.892;2022-08-14T04:33:51;97927.57;;;17.16;100.00
61939;BME280;47897;50.322;18.892;2022-08-14T04:36:18;97933.02;;;17.17;100.00
61939;BME280;47897;50.322;18.892;2022-08-14T04:38:45;97928.91;;;17.17;100.00
61939;BME280;47897;50.322;18.892;2022-08-14T04:41:32;97923.83;;;17.17;100.00
61939;BME280;47897;50.322;18.892;2022-08-14T04:44:18;97921.90;;;17.18;100.00
61939;BME280;47897;50.322;18.892;2022-08-14T04:46:46;97924.80;;;17.18;100.00
61939;BME280;47897;50.322;18.892;2022-08-14T04:49:31;97921.80;;;17.19;100.00
61939;BME280;47897;50.322;18.892;2022-08-14T04:51:59;97913.50;;;17.19;100.00
61939;BME280;47897;50.322;18.892;2022-08-14T04:54:31;97913.10;;;17.19;100.00
61939;BME280;47897;50.322;18.892;2022-08-14T04:56:58;97911.25;;;17.19;100.00
61939;BME280;47897;50.322;18.892;2022-08-14T04:59:25;97915.43;;;17.18;100.00
61939;BME280;47897;50.322;18.892;2022-08-14T05:01:52;97918.65;;;17.18;100.00
61939;BME280;47897;50.322;18.892;2022-08-14T05:04:20;97916.73;;;17.19;100.00
61939;BME280;47897;50.322;18.892;2022-08-14T05:06:49;97913.02;;;17.19;100.00
61939;BME280;47897;50.322;18.892;2022-08-14T05:09:16;97909.05;;;17.20;100.00
61939;BME280;47897;50.322;18.892;2022-08-14T05:11:43;97909.20;;;17.20;100.00
61939;BME280;47897;50.322;18.892;2022-08-14T05:14:11;97908.27;;;17.22;100.00
61939;BME280;47897;50.322;18.892;2022-08-14T05:16:38;97904.12;;;17.23;100.00
61939;BME280;47897;50.322;18.892;2022-08-14T05:19:05;97907.97;;;17.24;100.00
61939;BME280;47897;50.322;18.892;2022-08-14T05:21:34;97905.28;;;17.25;100.00
61939;BME280;47897;50.322;18.892;2022-08-14T05:24:01;97903.52;;;17.25;100.00
61939;BME280;47897;50.322;18.892;2022-08-14T05:26:28;97902.14;;;17.26;100.00
61939;BME280;47897;50.322;18.892;2022-08-14T05:28:55;97901.48;;;17.26;100.00
61939;BME280;47897;50.322;18.892;2022-08-14T05:31:22;97900.84;;;17.26;100.00
61939;BME280;47897;50.322;18.892;2022-08-14T05:33:49;97901.48;;;17.26;100.00
61939;BME280;47897;50.322;18.892;2022-08-14T05:36:16;97905.29;;;17.26;100.00
61939;BME280;47897;50.322;18.892;2022-08-14T05:38:46;97903.10;;;17.26;100.00
61939;BME280;47897;50.322;18.892;2022-08-14T05:41:16;97906.79;;;17.27;100.00
61939;BME280;47897;50.322;18.892;2022-08-14T05:43:45;97907.20;;;17.29;100.00
61939;BME280;47897;50.322;18.892;2022-08-14T05:46:16;97907.66;;;17.30;100.00
61939;BME280;47897;50.322;18.892;2022-08-14T05:48:54;97906.34;;;17.32;100.00
61939;BME280;47897;50.322;18.892;2022-08-14T05:51:23;97903.02;;;17.33;100.00
61939;BME280;47897;50.322;18.892;2022-08-14T05:53:50;97905.25;;;17.34;100.00
61939;BME280;47897;50.322;18.892;2022-08-14T05:56:17;97907.05;;;17.36;100.00
61939;BME280;47897;50.322;18.892;2022-08-14T05:58:44;97902.45;;;17.36;100.00
61939;BME280;47897;50.322;18.892;2022-08-14T06:01:11;97900.81;;;17.37;100.00
61939;BME280;47897;50.322;18.892;2022-08-14T06:03:38;97899.42;;;17.39;100.00
61939;BME280;47897;50.322;18.892;2022-08-14T06:06:05;97900.70;;;17.39;100.00
61939;BME280;47897;50.322;18.892;2022-08-14T06:08:32;97899.42;;;17.41;100.00
61939;BME280;47897;50.322;18.892;2022-08-14T06:11:02;97899.98;;;17.42;100.00
61939;BME280;47897;50.322;18.892;2022-08-14T06:13:30;97900.67;;;17.43;100.00
61939;BME280;47897;50.322;18.892;2022-08-14T06:15:58;97898.34;;;17.43;100.00
61939;BME280;47897;50.322;18.892;2022-08-14T06:18:25;97895.67;;;17.43;100.00
61939;BME280;47897;50.322;18.892;2022-08-14T06:20:52;97896.69;;;17.44;100.00
61939;BME280;47897;50.322;18.892;2022-08-14T06:23:20;97897.64;;;17.46;100.00
61939;BME280;47897;50.322;18.892;2022-08-14T06:25:47;97897.52;;;17.47;100.00
61939;BME280;47897;50.322;18.892;2022-08-14T06:28:19;97900.02;;;17.50;100.00
61939;BME280;47897;50.322;18.892;2022-08-14T06:30:46;97897.20;;;17.54;100.00
61939;BME280;47897;50.322;18.892;2022-08-14T06:33:15;97899.61;;;17.57;100.00
61939;BME280;47897;50.322;18.892;2022-08-14T06:35:42;97899.79;;;17.60;100.00
61939;BME280;47897;50.322;18.892;2022-08-14T06:38:15;97898.22;;;17.64;100.00
61939;BME280;47897;50.322;18.892;2022-08-14T06:40:42;97896.58;;;17.69;100.00
61939;BME280;47897;50.322;18.892;2022-08-14T06:43:11;97899.98;;;17.74;100.00
61939;BME280;47897;50.322;18.892;2022-08-14T06:45:39;97897.23;;;17.77;100.00
61939;BME280;47897;50.322;18.892;2022-08-14T06:48:19;97899.23;;;17.81;100.00
61939;BME280;47897;50.322;18.892;2022-08-14T06:50:49;97905.13;;;17.83;100.00
61939;BME280;47897;50.322;18.892;2022-08-14T06:53:16;97900.61;;;17.83;100.00
61939;BME280;47897;50.322;18.892;2022-08-14T06:55:46;97899.44;;;17.85;100.00
61939;BME280;47897;50.322;18.892;2022-08-14T06:58:16;97898.19;;;17.86;100.00
61939;BME280;47897;50.322;18.892;2022-08-14T07:00:44;97895.20;;;17.89;100.00
61939;BME280;47897;50.322;18.892;2022-08-14T07:03:31;97892.78;;;17.92;100.00
61939;BME280;47897;50.322;18.892;2022-08-14T07:06:18;97893.45;;;17.94;100.00
61939;BME280;47897;50.322;18.892;2022-08-14T07:08:45;97895.89;;;17.96;100.00
61939;BME280;47897;50.322;18.892;2022-08-14T07:11:12;97897.73;;;17.97;100.00
61939;BME280;47897;50.322;18.892;2022-08-14T07:13:40;97899.64;;;17.98;100.00
61939;BME280;47897;50.322;18.892;2022-08-14T07:16:07;97898.81;;;18.00;100.00
61939;BME280;47897;50.322;18.892;2022-08-14T07:18:35;97897.48;;;18.01;100.00
61939;BME280;47897;50.322;18.892;2022-08-14T07:21:04;97901.21;;;18.03;100.00
61939;BME280;47897;50.322;18.892;2022-08-14T07:23:32;97897.21;;;18.05;100.00
61939;BME280;47897;50.322;18.892;2022-08-14T07:26:01;97903.67;;;18.08;100.00
61939;BME280;47897;50.322;18.892;2022-08-14T07:28:31;97903.52;;;18.10;100.00
61939;BME280;47897;50.322;18.892;2022-08-14T07:31:03;97902.16;;;18.16;100.00
61939;BME280;47897;50.322;18.892;2022-08-14T07:33:32;97899.98;;;18.22;100.00
61939;BME280;47897;50.322;18.892;2022-08-14T07:36:02;97898.89;;;18.27;100.00
61939;BME280;47897;50.322;18.892;2022-08-14T07:38:29;97896.38;;;18.33;100.00
61939;BME280;47897;50.322;18.892;2022-08-14T07:40:56;97894.89;;;18.37;100.00
61939;BME280;47897;50.322;18.892;2022-08-14T07:43:25;97897.48;;;18.40;100.00
61939;BME280;47897;50.322;18.892;2022-08-14T07:45:52;97892.75;;;18.42;100.00
61939;BME280;47897;50.322;18.892;2022-08-14T07:48:19;97892.52;;;18.44;100.00
61939;BME280;47897;50.322;18.892;2022-08-14T07:50:47;97893.21;;;18.45;100.00
61939;BME280;47897;50.322;18.892;2022-08-14T07:53:18;97896.40;;;18.47;100.00
61939;BME280;47897;50.322;18.892;2022-08-14T07:55:47;97894.08;;;18.49;100.00
61939;BME280;47897;50.322;18.892;2022-08-14T07:58:15;97894.92;;;18.50;100.00
61939;BME280;47897;50.322;18.892;2022-08-14T08:00:43;97901.49;;;18.53;100.00
61939;BME280;47897;50.322;18.892;2022-08-14T08:03:11;97897.52;;;18.53;100.00
61939;BME280;47897;50.322;18.892;2022-08-14T08:05:39;97897.50;;;18.54;100.00
61939;BME280;47897;50.322;18.892;2022-08-14T08:08:07;97898.02;;;18.55;100.00
61939;BME280;47897;50.322;18.892;2022-08-14T08:10:35;97900.41;;;18.56;100.00
61939;BME280;47897;50.322;18.892;2022-08-14T08:13:14;97898.83;;;18.55;100.00
61939;BME280;47897;50.322;18.892;2022-08-14T08:15:47;97897.30;;;18.55;100.00
61939;BME280;47897;50.322;18.892;2022-08-14T08:18:15;97894.35;;;18.56;100.00
61939;BME280;47897;50.322;18.892;2022-08-14T08:20:45;97896.99;;;18.57;100.00
61939;BME280;47897;50.322;18.892;2022-08-14T08:23:14;97892.61;;;18.58;100.00
61939;BME280;47897;50.322;18.892;2022-08-14T08:25:44;97891.39;;;18.59;100.00
61939;BME280;47897;50.322;18.892;2022-08-14T08:28:13;97890.54;;;18.60;100.00
61939;BME280;47897;50.322;18.892;2022-08-14T08:30:49;97885.39;;;18.59;100.00
61939;BME280;47897;50.322;18.892;2022-08-14T08:33:21;97885.64;;;18.60;100.00
61939;BME280;47897;50.322;18.892;2022-08-14T08:35:49;97882.48;;;18.60;100.00
61939;BME280;47897;50.322;18.892;2022-08-14T08:38:24;97883.29;;;18.60;100.00
61939;BME280;47897;50.322;18.892;2022-08-14T08:40:54;97886.98;;;18.60;100.00
61939;BME280;47897;50.322;18.892;2022-08-14T08:43:27;97885.34;;;18.58;100.00
61939;BME280;47897;50.322;18.892;2022-08-14T08:46:00;97883.27;;;18.57;100.00
61939;BME280;47897;50.322;18.892;2022-08-14T08:53:58;97884.83;;;18.62;100.00
61939;BME280;47897;50.322;18.892;2022-08-14T08:59:22;97883.84;;;18.62;100.00
61939;BME280;47897;50.322;18.892;2022-08-14T09:01:54;97876.47;;;18.63;100.00
61939;BME280;47897;50.322;18.892;2022-08-14T09:04:25;97875.88;;;18.64;100.00
61939;BME280;47897;50.322;18.892;2022-08-14T09:06:53;97878.26;;;18.63;100.00
61939;BME280;47897;50.322;18.892;2022-08-14T09:09:23;97875.66;;;18.63;100.00
61939;BME280;47897;50.322;18.892;2022-08-14T09:11:51;97873.27;;;18.65;100.00
61939;BME280;47897;50.322;18.892;2022-08-14T09:14:21;97872.97;;;18.68;100.00
61939;BME280;47897;50.322;18.892;2022-08-14T09:16:50;97875.72;;;18.70;100.00
61939;BME280;47897;50.322;18.892;2022-08-14T09:19:17;97872.70;;;18.72;100.00
61939;BME280;47897;50.322;18.892;2022-08-14T09:21:44;97873.67;;;18.71;100.00
61939;BME280;47897;50.322;18.892;2022-08-14T09:24:13;97873.05;;;18.73;100.00
61939;BME280;47897;50.322;18.892;2022-08-14T09:26:43;97874.88;;;18.77;100.00
61939;BME280;47897;50.322;18.892;2022-08-14T09:29:11;97874.98;;;18.82;100.00
61939;BME280;47897;50.322;18.892;2022-08-14T09:31:48;97875.79;;;18.88;100.00
61939;BME280;47897;50.322;18.892;2022-08-14T09:39:49;97857.77;;;19.12;100.00
61939;BME280;47897;50.322;18.892;2022-08-14T09:42:25;97855.11;;;19.18;100.00
61939;BME280;47897;50.322;18.892;2022-08-14T09:45:17;97851.85;;;19.24;100.00
61939;BME280;47897;50.322;18.892;2022-08-14T09:47:49;97852.79;;;19.28;100.00
61939;BME280;47897;50.322;18.892;2022-08-14T09:50:23;97855.81;;;19.35;100.00
61939;BME280;47897;50.322;18.892;2022-08-14T09:53:03;97854.04;;;19.42;100.00
61939;BME280;47897;50.322;18.892;2022-08-14T09:55:33;97851.86;;;19.49;100.00
61939;BME280;47897;50.322;18.892;2022-08-14T09:58:12;97850.27;;;19.56;100.00
61939;BME280;47897;50.322;18.892;2022-08-14T10:00:47;97850.95;;;19.61;100.00
61939;BME280;47897;50.322;18.892;2022-08-14T10:03:28;97850.55;;;19.68;100.00
61939;BME280;47897;50.322;18.892;2022-08-14T10:06:11;97851.83;;;19.73;100.00
61939;BME280;47897;50.322;18.892;2022-08-14T10:08:42;97851.54;;;19.81;100.00
61939;BME280;47897;50.322;18.892;2022-08-14T10:11:29;97851.01;;;19.88;100.00
61939;BME280;47897;50.322;18.892;2022-08-14T10:16:42;97852.71;;;19.95;100.00
61939;BME280;47897;50.322;18.892;2022-08-14T10:19:12;97851.44;;;19.98;100.00
61939;BME280;47897;50.322;18.892;2022-08-14T10:21:43;97847.57;;;20.01;100.00
61939;BME280;47897;50.322;18.892;2022-08-14T10:24:31;97848.65;;;20.02;100.00
61939;BME280;47897;50.322;18.892;2022-08-14T10:27:00;97847.40;;;20.03;100.00
61939;BME280;47897;50.322;18.892;2022-08-14T10:29:36;97849.66;;;20.03;100.00
61939;BME280;47897;50.322;18.892;2022-08-14T10:32:06;97850.95;;;20.03;100.00
61939;BME280;47897;50.322;18.892;2022-08-14T10:34:38;97851.67;;;20.03;100.00
61939;BME280;47897;50.322;18.892;2022-08-14T10:37:11;97850.35;;;20.04;100.00
61939;BME280;47897;50.322;18.892;2022-08-14T10:39:40;97847.30;;;20.01;100.00
61939;BME280;47897;50.322;18.892;2022-08-14T10:42:11;97843.48;;;19.99;100.00
61939;BME280;47897;50.322;18.892;2022-08-14T10:44:42;97845.39;;;20.00;100.00
61939;BME280;47897;50.322;18.892;2022-08-14T10:47:14;97843.85;;;19.98;100.00
61939;BME280;47897;50.322;18.892;2022-08-14T10:49:57;97841.27;;;19.96;100.00
61939;BME280;47897;50.322;18.892;2022-08-14T10:52:29;97839.64;;;19.94;100.00
61939;BME280;47897;50.322;18.892;2022-08-14T10:55:10;97846.10;;;19.94;100.00
61939;BME280;47897;50.322;18.892;2022-08-14T10:57:53;97847.23;;;19.94;100.00
61939;BME280;47897;50.322;18.892;2022-08-14T11:00:22;97848.86;;;19.94;100.00
61939;BME280;47897;50.322;18.892;2022-08-14T11:02:59;97850.65;;;19.94;100.00
61939;BME280;47897;50.322;18.892;2022-08-14T11:05:38;97844.18;;;19.93;100.00
61939;BME280;47897;50.322;18.892;2022-08-14T11:08:09;97849.55;;;19.92;100.00
61939;BME280;47897;50.322;18.892;2022-08-14T11:13:16;97848.02;;;19.92;100.00
61939;BME280;47897;50.322;18.892;2022-08-14T11:15:44;97851.20;;;19.91;100.00
61939;BME280;47897;50.322;18.892;2022-08-14T11:18:12;97854.04;;;19.89;100.00
61939;BME280;47897;50.322;18.892;2022-08-14T11:20:47;97857.21;;;19.89;100.00
61939;BME280;47897;50.322;18.892;2022-08-14T11:23:15;97851.67;;;19.89;100.00
61939;BME280;47897;50.322;18.892;2022-08-14T11:25:44;97852.70;;;19.92;100.00
61939;BME280;47897;50.322;18.892;2022-08-14T11:28:12;97848.15;;;19.95;100.00
61939;BME280;47897;50.322;18.892;2022-08-14T11:30:42;97849.15;;;19.99;100.00
61939;BME280;47897;50.322;18.892;2022-08-14T11:33:10;97845.23;;;20.04;100.00
61939;BME280;47897;50.322;18.892;2022-08-14T11:35:37;97844.58;;;20.11;100.00
61939;BME280;47897;50.322;18.892;2022-08-14T11:38:05;97845.56;;;20.20;100.00
61939;BME280;47897;50.322;18.892;2022-08-14T11:40:35;97847.96;;;20.32;100.00
61939;BME280;47897;50.322;18.892;2022-08-14T11:43:04;97846.15;;;20.45;100.00
61939;BME280;47897;50.322;18.892;2022-08-14T11:45:34;97843.21;;;20.59;100.00
61939;BME280;47897;50.322;18.892;2022-08-14T11:48:20;97838.94;;;20.71;100.00
61939;BME280;47897;50.322;18.892;2022-08-14T11:50:49;97840.62;;;20.84;99.91
61939;BME280;47897;50.322;18.892;2022-08-14T11:53:27;97838.16;;;20.93;99.12
61939;BME280;47897;50.322;18.892;2022-08-14T11:56:03;97838.17;;;20.99;99.77
61939;BME280;47897;50.322;18.892;2022-08-14T11:58:33;97839.92;;;21.08;99.82
61939;BME280;47897;50.322;18.892;2022-08-14T12:01:04;97837.88;;;21.15;98.30
61939;BME280;47897;50.322;18.892;2022-08-14T12:03:40;97839.02;;;21.23;97.17
61939;BME280;47897;50.322;18.892;2022-08-14T12:06:13;97835.24;;;21.26;94.67
61939;BME280;47897;50.322;18.892;2022-08-14T12:08:41;97833.08;;;21.32;94.77
61939;BME280;47897;50.322;18.892;2022-08-14T12:11:11;97827.61;;;21.35;93.20
61939;BME280;47897;50.322;18.892;2022-08-14T12:13:40;97830.09;;;21.40;92.87
61939;BME280;47897;50.322;18.892;2022-08-14T12:16:10;97829.45;;;21.49;93.60
61939;BME280;47897;50.322;18.892;2022-08-14T12:18:42;97830.46;;;21.61;92.49
61939;BME280;47897;50.322;18.892;2022-08-14T12:21:18;97830.67;;;21.66;91.40
61939;BME280;47897;50.322;18.892;2022-08-14T12:23:47;97831.94;;;21.68;90.48
61939;BME280;47897;50.322;18.892;2022-08-14T12:26:25;97833.25;;;21.69;90.08
61939;BME280;47897;50.322;18.892;2022-08-14T12:29:05;97832.58;;;21.74;89.14
61939;BME280;47897;50.322;18.892;2022-08-14T12:31:35;97827.55;;;21.81;88.50
61939;BME280;47897;50.322;18.892;2022-08-14T12:34:04;97827.34;;;21.86;87.54
61939;BME280;47897;50.322;18.892;2022-08-14T12:36:31;97830.06;;;21.90;87.67
61939;BME280;47897;50.322;18.892;2022-08-14T12:39:00;97834.12;;;21.94;87.39
61939;BME280;47897;50.322;18.892;2022-08-14T12:41:31;97841.04;;;21.99;86.43
61939;BME280;47897;50.322;18.892;2022-08-14T12:44:04;97839.88;;;22.06;86.93
61939;BME280;47897;50.322;18.892;2022-08-14T12:46:32;97840.25;;;22.11;86.44
61939;BME280;47897;50.322;18.892;2022-08-14T12:49:07;97840.11;;;22.12;85.43
61939;BME280;47897;50.322;18.892;2022-08-14T12:51:35;97838.54;;;22.13;85.64
61939;BME280;47897;50.322;18.892;2022-08-14T12:54:20;97834.08;;;22.13;84.95
61939;BME280;47897;50.322;18.892;2022-08-14T12:56:47;97832.63;;;22.12;84.66
61939;BME280;47897;50.322;18.892;2022-08-14T12:59:15;97828.48;;;22.11;84.08
61939;BME280;47897;50.322;18.892;2022-08-14T13:01:44;97826.42;;;22.12;84.43
61939;BME280;47897;50.322;18.892;2022-08-14T13:04:14;97818.84;;;22.12;84.23
61939;BME280;47897;50.322;18.892;2022-08-14T13:06:44;97816.41;;;22.12;83.54
61939;BME280;47897;50.322;18.892;2022-08-14T13:09:15;97815.05;;;22.12;82.77
61939;BME280;47897;50.322;18.892;2022-08-14T13:11:46;97816.35;;;22.14;82.77
61939;BME280;47897;50.322;18.892;2022-08-14T13:14:25;97814.33;;;22.17;82.77
61939;BME280;47897;50.322;18.892;2022-08-14T13:16:56;97811.02;;;22.20;82.06
61939;BME280;47897;50.322;18.892;2022-08-14T13:19:24;97808.00;;;22.21;81.65